Norfolk Ns (Chambers Fld) Airport
KNGU : now visible

Airfield :











YOU CAN JOIN US ON...

 
LOGIN :

Register | Disclaimer

   EN    FR    IT 

 









Legend :    VFR   Marginal VFR   IFR   Intensive IFR   Very Intensive IFR
Visi :
Ceiling :
>= 8 km
>= 3000ft
5 to 8 km
1000 to 3000 ft
1500m to 5 km
500 to 1000 ft
800 to 1500m
200 to 500 ft
< 800m
< 200 ft
Symbols :   Thunderstorms  Fog  Heavy snow  Heavy precipitations  Wind > 20 kt






- Airport Elevation : 17 ft


KNGU - Norfolk Ns (Chambers Fld)

CURRENT METAR :
  • 270543Z 21012G19KT 10SM SCT033 BKN065 OVC080 14/12 A2956 RMK AO2 RAE28 P0005 T01440117 $

EXPIRED METARs :
  • 270459Z 24020G26KT 5SM -RA SCT018 BKN022 OVC060 16/13 A2958 RMK AO2 PK WND 24026/0459 RAB55 PRESRR SLP018 P0003 T01610128 401720111 $
  • 270450Z 20013G20KT 10SM SCT022 BKN028 OVC060 17/14 A2956 RMK AO2 T01720144 $
  • 270359Z 19009G16KT 10SM SCT005 BKN070 OVC090 17/14 A2957 RMK AO2 RAB39E51 SLP012 P0000 T01670144 $
  • 270259Z 17007KT 8SM SCT005 SCT014 OVC100 14/13 A2961 RMK AO2 SLP026 T01440133 58022 $
  • 270247Z 16008KT 6SM BR FEW005 SCT013 OVC100 14/13 A2960 RMK AO2 T01440133 $

TAF AMD TAF KNGU
Valid from the 26 at 23:00 until the 27 at 23:00 UTC


2623/2723 15009KT 8000 BR FEW005 BKN025 OVC100 540109 541008 QNH2958INS
TEMPO 2623/2703 VRB06KT 4800 BR BKN005 BKN020 OVC100
BECMG 2703/2705 21013G20KT 9999 VCSH FEW010 BKN020 OVC100 640909 641807 540109 541008 QNH2957INS
TEMPO 2703/2706 24015G22KT 4800 -SHRA BR SCT010 BKN020 OVC040
BECMG 2706/2708 27016G24KT 9999 VCSH FEW010 BKN030 640709 641607 540009 540909 QNH2963INS
FM271000 28014G25KT 9999 FEW260 600000 520009 520909 QNH2968INS T15/2701Z T06/2711Z AMD 2340 FN00062



MET'MAP, your aeronautical weather chart ! - Copyright ORBIFLY December 2007 - Disclaimer

ORBIFLY MET'MAP TEAM :

Programming & Development : Alexandra Zaïnal
Concept & original design : Baudouin d'Aumeries
Assistance for programming : Marc-Olivier Méhu
Technical & hardware support : Manuel Goepfert

Contact : metmap@orbifly.com




SOURCES & CREDITS :

   NOAA       Earth
Advisory